Time;durP1;ratioP1;P1;durP2;ratioP2;P2;SDS_P1;SDS_P2;PMS_P1;PMS_P2;Temp;Humidity;BMP_temperature;BMP_pressure;BME280_temperature;BME280_humidity;BME280_pressure;Samples;Min_cycle;Max_cycle;Signal;HPM_P1;HPM_P2
2022/12/21 00:01:24;;;;;;;;;;;;;;;8.57;100.00;101000.84;4913025;29;20372;-66
2022/12/21 00:03:51;;;;;;;;;;;;;;;8.57;100.00;100996.22;4912125;29;19919;-67
2022/12/21 00:06:16;;;;;;;;;;;;;;;8.58;100.00;100983.34;4913753;29;19919;-67
2022/12/21 00:08:42;;;;;;;;;;;;;;;8.59;100.00;100985.03;4908961;29;19921;-67
2022/12/21 00:11:09;;;;;;;;;;;;;;;8.58;100.00;100981.47;4910172;29;20267;-68
2022/12/21 00:13:34;;;;;;;;;;;;;;;8.58;100.00;100977.88;4910362;29;20325;-67
2022/12/21 00:16:00;;;;;;;;;;;;;;;8.58;100.00;100980.63;4916792;29;20021;-67
2022/12/21 00:18:26;;;;;;;;;;;;;;;8.58;100.00;100975.97;4915487;29;19946;-67
2022/12/21 00:20:58;;;;;;;;;;;;;;;8.59;100.00;100976.81;4926906;29;19969;-67
2022/12/21 00:23:23;;;;;;;;;;;;;;;8.56;100.00;100983.56;4925273;29;19994;-67
2022/12/21 00:25:49;;;;;;;;;;;;;;;8.53;100.00;100978.53;4914679;29;20013;-66
2022/12/21 00:28:14;;;;;;;;;;;;;;;8.51;100.00;100980.63;4910882;29;20579;-68
2022/12/21 00:30:39;;;;;;;;;;;;;;;8.48;100.00;100980.22;4905649;29;19957;-66
2022/12/21 00:33:04;;;;;;;;;;;;;;;8.46;100.00;100983.16;4909580;29;19918;-66
2022/12/21 00:35:29;;;;;;;;;;;;;;;8.45;100.00;100980.63;4919979;29;19927;-67
2022/12/21 00:37:55;;;;;;;;;;;;;;;8.47;100.00;100986.75;4910875;29;19915;-67
2022/12/21 00:40:20;;;;;;;;;;;;;;;8.47;100.00;100990.34;4917986;29;21733;-67
2022/12/21 00:42:45;;;;;;;;;;;;;;;8.47;100.00;100994.97;4924934;29;19919;-67
2022/12/21 00:45:10;;;;;;;;;;;;;;;8.48;100.00;100985.69;4910113;29;20243;-65
2022/12/21 00:47:35;;;;;;;;;;;;;;;8.49;100.00;100988.22;4915228;29;19919;-67
2022/12/21 00:50:00;;;;;;;;;;;;;;;8.51;100.00;100996.19;4912891;29;19967;-67
2022/12/21 00:52:27;;;;;;;;;;;;;;;8.51;100.00;100997.03;4909136;29;19931;-67
2022/12/21 00:54:52;;;;;;;;;;;;;;;8.50;100.00;100991.78;4923395;29;20310;-67
2022/12/21 00:57:17;;;;;;;;;;;;;;;8.49;100.00;100998.31;4915948;29;19919;-68
2022/12/21 00:59:42;;;;;;;;;;;;;;;8.50;100.00;100991.78;4912237;29;19919;-68
2022/12/21 01:02:07;;;;;;;;;;;;;;;8.48;100.00;100996.66;4911275;29;19922;-65
2022/12/21 01:04:33;;;;;;;;;;;;;;;8.47;100.00;101006.75;4910438;29;19954;-68
2022/12/21 01:06:58;;;;;;;;;;;;;;;8.46;100.00;101009.69;4911210;29;19919;-67
2022/12/21 01:09:24;;;;;;;;;;;;;;;8.46;100.00;101006.94;4910332;29;20393;-68
2022/12/21 01:11:49;;;;;;;;;;;;;;;8.47;100.00;101008.66;4914360;29;19918;-68
2022/12/21 01:14:14;;;;;;;;;;;;;;;8.45;100.00;101013.47;4919398;29;19926;-68
2022/12/21 01:16:39;;;;;;;;;;;;;;;8.45;100.00;101014.31;4921930;29;19962;-67
2022/12/21 01:19:06;;;;;;;;;;;;;;;8.45;100.00;101024.44;4918155;29;19925;-67
2022/12/21 01:21:32;;;;;;;;;;;;;;;8.43;100.00;101018.34;4925640;29;19998;-64
2022/12/21 01:23:58;;;;;;;;;;;;;;;8.42;100.00;101014.75;4909512;29;20047;-68
2022/12/21 01:26:24;;;;;;;;;;;;;;;8.42;100.00;101019.41;4915690;29;19925;-67
2022/12/21 01:28:49;;;;;;;;;;;;;;;8.40;100.00;101014.13;4909835;29;19919;-67
2022/12/21 01:31:14;;;;;;;;;;;;;;;8.38;100.00;101013.50;4916909;29;19925;-66
2022/12/21 01:33:39;;;;;;;;;;;;;;;8.37;100.00;101011.00;4924404;29;20001;-67
2022/12/21 01:36:05;;;;;;;;;;;;;;;8.37;100.00;101008.25;4911357;29;19911;-68
2022/12/21 01:38:31;;;;;;;;;;;;;;;8.36;100.00;101020.19;4910676;29;19992;-68
2022/12/21 01:40:56;;;;;;;;;;;;;;;8.35;100.00;101018.50;4909357;29;19923;-68
2022/12/21 01:43:40;;;;;;;;;;;;;;;8.33;100.00;101026.94;4910678;29;20013;-67
2022/12/21 01:46:24;;;;;;;;;;;;;;;8.34;100.00;101028.63;4910424;29;19965;-64
2022/12/21 01:48:53;;;;;;;;;;;;;;;8.33;100.00;101030.53;4915490;29;19914;-67
2022/12/21 01:51:19;;;;;;;;;;;;;;;8.33;100.00;101037.91;4909684;29;19923;-65
2022/12/21 01:53:48;;;;;;;;;;;;;;;8.32;100.00;101033.47;4909786;29;19974;-67
2022/12/21 01:56:15;;;;;;;;;;;;;;;8.31;100.00;101031.78;4917399;29;19983;-67
2022/12/21 01:58:41;;;;;;;;;;;;;;;8.30;100.00;101039.16;4910180;29;19945;-67
2022/12/21 02:01:06;;;;;;;;;;;;;;;8.31;100.00;101032.63;4911092;29;20355;-65
2022/12/21 02:03:39;;;;;;;;;;;;;;;8.31;100.00;101024.44;4910106;29;19919;-67
2022/12/21 02:06:07;;;;;;;;;;;;;;;8.31;100.00;101018.09;4911779;29;19915;-67
2022/12/21 02:08:33;;;;;;;;;;;;;;;8.30;100.00;101017.25;4917605;29;19926;-67
2022/12/21 02:10:59;;;;;;;;;;;;;;;8.28;100.00;101013.06;4930764;29;19938;-65
2022/12/21 02:13:24;;;;;;;;;;;;;;;8.27;100.00;101012.22;4907178;29;19954;-63
2022/12/21 02:15:58;;;;;;;;;;;;;;;8.26;100.00;101017.88;4911042;29;20290;-67
2022/12/21 02:18:32;;;;;;;;;;;;;;;8.25;100.00;101016.19;4914178;29;19938;-67
2022/12/21 02:21:12;;;;;;;;;;;;;;;8.24;100.00;101018.09;4923089;29;19973;-67
2022/12/21 02:23:38;;;;;;;;;;;;;;;8.24;100.00;101017.25;4920496;29;19922;-64
2022/12/21 02:26:15;;;;;;;;;;;;;;;8.23;100.00;101021.91;4916522;29;20282;-68
2022/12/21 02:28:46;;;;;;;;;;;;;;;8.23;100.00;101010.97;4917855;29;19967;-67
2022/12/21 02:31:17;;;;;;;;;;;;;;;8.23;100.00;101010.97;4911714;29;20477;-66
2022/12/21 02:33:58;;;;;;;;;;;;;;;8.22;100.00;101006.53;4914593;29;19926;-66
2022/12/21 02:36:36;;;;;;;;;;;;;;;8.20;100.00;101011.38;4914079;29;20285;-68
2022/12/21 02:39:10;;;;;;;;;;;;;;;8.16;100.00;101015.59;4924148;29;19947;-64
2022/12/21 02:41:40;;;;;;;;;;;;;;;8.15;100.00;101002.94;4922677;29;20298;-68
2022/12/21 02:44:44;;;;;;;;;;;;;;;8.14;100.00;101001.28;4917087;29;19992;-68
2022/12/21 02:47:12;;;;;;;;;;;;;;;8.14;100.00;101000.44;4889980;29;20367;-67
2022/12/21 02:49:48;;;;;;;;;;;;;;;8.14;100.00;101003.16;4888917;29;19923;-64
2022/12/21 02:52:20;;;;;;;;;;;;;;;8.13;100.00;101005.06;4898702;29;20043;-66
2022/12/21 02:54:45;;;;;;;;;;;;;;;8.15;100.00;101007.59;4908800;29;20248;-67
2022/12/21 02:57:10;;;;;;;;;;;;;;;8.14;100.00;101009.47;4908040;29;19926;-67
2022/12/21 02:59:47;;;;;;;;;;;;;;;8.13;100.00;101010.53;4909332;29;19919;-68
2022/12/21 03:02:15;;;;;;;;;;;;;;;8.15;100.00;101007.59;4915240;29;19966;-68
2022/12/21 03:04:41;;;;;;;;;;;;;;;8.14;100.00;101008.63;4916512;29;19923;-68
2022/12/21 03:07:20;;;;;;;;;;;;;;;8.14;100.00;101001.28;4924951;29;20306;-68
2022/12/21 03:09:52;;;;;;;;;;;;;;;8.15;100.00;100991.16;4917383;29;19935;-67
2022/12/21 03:12:38;;;;;;;;;;;;;;;8.14;100.00;100976.66;4926618;29;19934;-66
2022/12/21 03:15:04;;;;;;;;;;;;;;;8.13;100.00;100990.53;4914084;29;19942;-67
2022/12/21 03:17:35;;;;;;;;;;;;;;;8.09;100.00;100995.59;4911540;29;19958;-67
2022/12/21 03:20:08;;;;;;;;;;;;;;;8.10;100.00;101002.75;4914712;29;19923;-68
2022/12/21 03:22:44;;;;;;;;;;;;;;;8.09;100.00;100984.66;4919445;29;20273;-67
2022/12/21 03:25:16;;;;;;;;;;;;;;;8.06;100.00;100994.13;4913230;29;20037;-68
2022/12/21 03:27:44;;;;;;;;;;;;;;;8.07;100.00;100997.72;4910924;29;19919;-68
2022/12/21 03:30:13;;;;;;;;;;;;;;;8.08;100.00;100993.91;4912554;29;20647;-66
2022/12/21 03:32:50;;;;;;;;;;;;;;;8.08;100.00;100980.22;4915969;29;19919;-67
2022/12/21 03:35:26;;;;;;;;;;;;;;;8.10;100.00;100983.59;4914704;29;19919;-67
2022/12/21 03:37:53;;;;;;;;;;;;;;;8.08;100.00;100974.75;4929858;29;19915;-68
2022/12/21 03:40:21;;;;;;;;;;;;;;;8.08;100.00;100980.22;4932064;29;19919;-68
2022/12/21 03:42:50;;;;;;;;;;;;;;;8.07;100.00;100981.28;4920360;29;19919;-68
2022/12/21 03:45:25;;;;;;;;;;;;;;;8.07;100.00;100984.03;4913095;29;19923;-67
2022/12/21 03:47:52;;;;;;;;;;;;;;;8.06;100.00;100987.81;4916409;29;19930;-66
2022/12/21 03:50:21;;;;;;;;;;;;;;;8.05;100.00;100991.59;4921749;29;19997;-68
2022/12/21 03:53:07;;;;;;;;;;;;;;;8.06;100.00;100999.59;4911857;29;19919;-67
2022/12/21 03:55:35;;;;;;;;;;;;;;;8.04;100.00;100973.50;4887457;29;19915;-67
2022/12/21 03:58:01;;;;;;;;;;;;;;;8.03;100.00;100983.59;4911884;29;19923;-67
2022/12/21 04:00:27;;;;;;;;;;;;;;;8.04;100.00;100977.06;4932430;29;20255;-67
2022/12/21 04:02:59;;;;;;;;;;;;;;;8.02;100.00;100970.16;4915386;29;19919;-64
2022/12/21 04:05:30;;;;;;;;;;;;;;;8.02;100.00;100968.25;4913249;29;19919;-67
2022/12/21 04:07:56;;;;;;;;;;;;;;;8.02;100.00;100978.34;4910747;29;19919;-67
2022/12/21 04:10:22;;;;;;;;;;;;;;;8.01;100.00;100984.88;4928949;29;19915;-68
2022/12/21 04:12:47;;;;;;;;;;;;;;;8.02;100.00;100978.34;4911684;29;19926;-64
2022/12/21 04:15:17;;;;;;;;;;;;;;;8.00;100.00;100972.22;4913348;29;20351;-67
2022/12/21 04:17:44;;;;;;;;;;;;;;;7.99;100.00;100971.41;4914075;29;19911;-67
2022/12/21 04:20:11;;;;;;;;;;;;;;;7.99;100.00;100970.56;4927235;29;20361;-63
2022/12/21 04:28:12;;;;;;;;;;;;;;;7.96;100.00;100979.19;4916147;29;19941;-66
2022/12/21 04:30:39;;;;;;;;;;;;;;;7.96;100.00;100976.47;4911592;29;20380;-67
2022/12/21 04:33:05;;;;;;;;;;;;;;;7.95;100.00;100974.75;4918803;29;20345;-66
2022/12/21 04:35:30;;;;;;;;;;;;;;;7.95;100.00;100974.75;4913744;29;19978;-67
2022/12/21 04:37:55;;;;;;;;;;;;;;;7.94;100.00;100976.66;4920408;29;20018;-67
2022/12/21 04:40:20;;;;;;;;;;;;;;;7.94;100.00;100976.66;4913634;29;19978;-62
2022/12/21 04:42:46;;;;;;;;;;;;;;;7.96;100.00;100979.19;4912717;29;20021;-67
2022/12/21 04:45:11;;;;;;;;;;;;;;;7.94;100.00;100968.44;4912727;29;19919;-67
2022/12/21 04:47:36;;;;;;;;;;;;;;;7.93;100.00;100966.78;4920973;29;19918;-68
2022/12/21 04:50:01;;;;;;;;;;;;;;;7.96;100.00;100976.47;4913480;29;20401;-67
2022/12/21 04:52:27;;;;;;;;;;;;;;;7.94;100.00;100975.81;4911557;29;20314;-67
2022/12/21 04:54:52;;;;;;;;;;;;;;;7.91;100.00;100966.16;4907815;29;20037;-66
2022/12/21 04:57:17;;;;;;;;;;;;;;;7.90;100.00;100963.59;4911575;29;19919;-67
2022/12/21 04:59:44;;;;;;;;;;;;;;;7.89;100.00;100970.13;4911815;29;19915;-67
2022/12/21 05:02:09;;;;;;;;;;;;;;;7.90;100.00;100978.13;4913325;29;19919;-68
2022/12/21 05:04:34;;;;;;;;;;;;;;;7.88;100.00;100968.47;4917329;29;19926;-68
2022/12/21 05:07:00;;;;;;;;;;;;;;;7.87;100.00;100967.63;4912824;29;20313;-67
2022/12/21 05:09:25;;;;;;;;;;;;;;;7.86;100.00;100960.47;4927328;29;19934;-64
2022/12/21 05:11:51;;;;;;;;;;;;;;;7.85;100.00;100964.22;4923551;29;19915;-67
2022/12/21 05:14:16;;;;;;;;;;;;;;;7.84;100.00;100954.34;4912123;29;19923;-67
2022/12/21 05:16:42;;;;;;;;;;;;;;;7.85;100.00;100966.13;4913095;29;19922;-64
2022/12/21 05:19:07;;;;;;;;;;;;;;;7.83;100.00;100960.03;4911643;29;19919;-63
2022/12/21 05:21:32;;;;;;;;;;;;;;;7.83;100.00;100965.50;4912588;29;19922;-67
2022/12/21 05:23:57;;;;;;;;;;;;;;;7.82;100.00;100969.31;4911252;29;19919;-68
2022/12/21 05:26:22;;;;;;;;;;;;;;;7.81;100.00;100968.47;4909854;29;20266;-68
2022/12/21 05:28:48;;;;;;;;;;;;;;;7.79;100.00;100959.59;4908931;29;19919;-67
2022/12/21 05:31:14;;;;;;;;;;;;;;;7.77;100.00;100970.78;4916770;29;19919;-67
2022/12/21 05:33:39;;;;;;;;;;;;;;;7.76;100.00;100960.88;4916170;29;19919;-67
2022/12/21 05:36:05;;;;;;;;;;;;;;;7.74;100.00;100954.78;4912035;29;19926;-63
2022/12/21 05:38:31;;;;;;;;;;;;;;;7.71;100.00;100949.75;4924706;29;19926;-67
2022/12/21 05:40:56;;;;;;;;;;;;;;;7.72;100.00;100954.16;4909737;29;20403;-67
2022/12/21 05:43:21;;;;;;;;;;;;;;;7.69;100.00;100959.19;4911091;29;20658;-63
2022/12/21 05:45:46;;;;;;;;;;;;;;;7.65;100.00;100958.75;4912099;29;20033;-67
2022/12/21 05:48:11;;;;;;;;;;;;;;;7.63;100.00;100960.88;4910593;29;19949;-68
2022/12/21 05:50:38;;;;;;;;;;;;;;;7.62;100.00;100961.91;4922190;29;19967;-67
2022/12/21 05:53:03;;;;;;;;;;;;;;;7.60;100.00;100953.06;4910857;29;20386;-64
2022/12/21 05:55:29;;;;;;;;;;;;;;;7.60;100.00;100944.88;4914182;29;19965;-67
2022/12/21 05:57:54;;;;;;;;;;;;;;;7.57;100.00;100948.03;4909565;29;19926;-67
2022/12/21 06:00:20;;;;;;;;;;;;;;;7.54;100.00;100951.19;4910046;29;20290;-68
2022/12/21 06:02:45;;;;;;;;;;;;;;;7.51;100.00;100952.44;4915193;29;19922;-64
2022/12/21 06:05:10;;;;;;;;;;;;;;;7.47;100.00;100945.72;4911942;29;19923;-66
2022/12/21 06:07:35;;;;;;;;;;;;;;;7.46;100.00;100941.31;4910073;29;19962;-67
2022/12/21 06:10:00;;;;;;;;;;;;;;;7.43;100.00;100938.97;4916283;29;19962;-67
2022/12/21 06:12:28;;;;;;;;;;;;;;;7.43;100.00;100952.63;4925157;29;20405;-67
2022/12/21 06:14:53;;;;;;;;;;;;;;;7.42;100.00;100941.94;4911153;29;19919;-68
2022/12/21 06:17:18;;;;;;;;;;;;;;;7.41;100.00;100948.44;4915882;29;19969;-67
2022/12/21 06:19:43;;;;;;;;;;;;;;;7.40;100.00;100941.28;4911962;29;19941;-65
2022/12/21 06:22:09;;;;;;;;;;;;;;;7.40;100.00;100946.72;4910830;29;20032;-64
2022/12/21 06:24:34;;;;;;;;;;;;;;;7.39;100.00;100945.06;4911945;29;19977;-65
2022/12/21 06:26:59;;;;;;;;;;;;;;;7.38;100.00;100949.69;4908304;29;20397;-67
2022/12/21 06:29:24;;;;;;;;;;;;;;;7.37;100.00;100952.63;4904979;29;19922;-67
2022/12/21 06:31:49;;;;;;;;;;;;;;;7.37;100.00;100945.28;4907836;29;20003;-67
2022/12/21 06:34:14;;;;;;;;;;;;;;;7.36;100.00;100940.03;4915000;29;20390;-67
2022/12/21 06:36:40;;;;;;;;;;;;;;;7.34;100.00;100950.31;4914471;29;19923;-65
2022/12/21 06:39:05;;;;;;;;;;;;;;;7.34;100.00;100950.31;4925510;29;19919;-67
2022/12/21 06:41:30;;;;;;;;;;;;;;;7.33;100.00;100954.09;4915341;29;20377;-67
2022/12/21 06:43:55;;;;;;;;;;;;;;;7.32;100.00;100955.97;4913094;29;19973;-67
2022/12/21 06:46:21;;;;;;;;;;;;;;;7.29;100.00;100949.03;4916057;29;19926;-63
2022/12/21 06:48:46;;;;;;;;;;;;;;;7.28;100.00;100941.88;4915243;29;19919;-67
2022/12/21 06:51:13;;;;;;;;;;;;;;;7.26;100.00;100949.47;4914116;29;19934;-67
2022/12/21 06:53:39;;;;;;;;;;;;;;;7.24;100.00;100951.53;4912369;29;20326;-67
2022/12/21 06:56:08;;;;;;;;;;;;;;;7.24;100.00;100956.16;4915454;29;19915;-67
2022/12/21 06:58:34;;;;;;;;;;;;;;;7.22;100.00;100956.38;4927000;29;19926;-66
2022/12/21 07:01:04;;;;;;;;;;;;;;;7.23;100.00;100960.78;4920628;29;20291;-68
2022/12/21 07:03:30;;;;;;;;;;;;;;;7.23;100.00;100970.88;4914122;29;20005;-67
2022/12/21 07:05:55;;;;;;;;;;;;;;;7.22;100.00;100969.19;4915039;29;20345;-67
2022/12/21 07:08:21;;;;;;;;;;;;;;;7.21;100.00;100964.78;4913358;29;20017;-64
2022/12/21 07:10:46;;;;;;;;;;;;;;;7.22;100.00;100980.13;4921712;29;19918;-63
2022/12/21 07:13:11;;;;;;;;;;;;;;;7.24;100.00;100965.19;4911047;29;19918;-67
2022/12/21 07:15:36;;;;;;;;;;;;;;;7.19;100.00;100959.50;4918077;29;20370;-64
2022/12/21 07:18:02;;;;;;;;;;;;;;;7.18;100.00;100957.00;4914433;29;19966;-67
2022/12/21 07:20:27;;;;;;;;;;;;;;;7.12;100.00;100969.59;4912367;29;19927;-69
2022/12/21 07:22:52;;;;;;;;;;;;;;;7.06;100.00;100959.47;4912663;29;19919;-67
2022/12/21 07:25:18;;;;;;;;;;;;;;;7.00;100.00;100966.59;4914606;29;20025;-66
2022/12/21 07:27:43;;;;;;;;;;;;;;;6.95;100.00;100971.84;4912982;29;19934;-67
2022/12/21 07:30:08;;;;;;;;;;;;;;;6.90;100.00;100973.50;4914397;29;19915;-68
2022/12/21 07:32:34;;;;;;;;;;;;;;;6.90;100.00;100981.69;4917069;29;20318;-67
2022/12/21 07:34:59;;;;;;;;;;;;;;;6.87;100.00;100982.09;4931409;29;19914;-66
2022/12/21 07:37:24;;;;;;;;;;;;;;;6.86;100.00;100983.13;4914313;29;19970;-66
2022/12/21 07:39:49;;;;;;;;;;;;;;;6.86;100.00;100991.34;4912954;29;19923;-67
2022/12/21 07:42:14;;;;;;;;;;;;;;;6.86;100.00;100994.91;4914285;29;20275;-68
2022/12/21 07:44:40;;;;;;;;;;;;;;;6.90;100.00;100998.06;4913706;29;20013;-68
2022/12/21 07:47:05;;;;;;;;;;;;;;;6.90;100.00;101003.53;4913316;29;20307;-67
2022/12/21 07:49:30;;;;;;;;;;;;;;;6.92;100.00;101026.00;4914208;29;19925;-67
2022/12/21 07:51:55;;;;;;;;;;;;;;;6.93;100.00;101022.22;4913807;29;19951;-68
2022/12/21 07:54:20;;;;;;;;;;;;;;;6.96;100.00;101025.41;4914481;29;19998;-68
2022/12/21 07:56:45;;;;;;;;;;;;;;;6.98;100.00;101033.38;4912837;29;19923;-68
2022/12/21 07:59:11;;;;;;;;;;;;;;;6.96;100.00;101040.94;4913814;29;20523;-69
2022/12/21 08:01:36;;;;;;;;;;;;;;;6.96;100.00;101030.03;4913430;29;19934;-66
2022/12/21 08:04:01;;;;;;;;;;;;;;;6.97;100.00;101026.25;4931258;29;19978;-68
2022/12/21 08:06:26;;;;;;;;;;;;;;;7.01;100.00;101027.53;4920739;29;19923;-67
2022/12/21 08:08:51;;;;;;;;;;;;;;;6.99;100.00;101030.47;4913707;29;19919;-68
2022/12/21 08:11:18;;;;;;;;;;;;;;;7.00;100.00;101032.16;4913763;29;19918;-68
2022/12/21 08:13:44;;;;;;;;;;;;;;;7.05;100.00;101027.97;4912704;29;19926;-68
2022/12/21 08:16:11;;;;;;;;;;;;;;;6.98;100.00;101020.56;4913490;29;19918;-67
2022/12/21 08:18:37;;;;;;;;;;;;;;;6.92;100.00;101013.19;4914125;29;19915;-68
2022/12/21 08:21:02;;;;;;;;;;;;;;;6.93;100.00;101022.22;4911991;29;19926;-66
2022/12/21 08:23:28;;;;;;;;;;;;;;;6.93;100.00;101022.22;4912246;29;19953;-68
2022/12/21 08:25:53;;;;;;;;;;;;;;;7.00;100.00;101031.31;4910264;29;19919;-68
2022/12/21 08:28:18;;;;;;;;;;;;;;;7.01;100.00;101031.09;4911768;29;19961;-68
2022/12/21 08:30:44;;;;;;;;;;;;;;;7.03;100.00;101037.19;4911521;29;19922;-68
2022/12/21 08:33:09;;;;;;;;;;;;;;;7.07;100.00;101034.06;4909286;29;19926;-68
2022/12/21 08:35:34;;;;;;;;;;;;;;;7.16;100.00;101024.66;4912784;29;19926;-67
2022/12/21 08:38:00;;;;;;;;;;;;;;;7.20;100.00;101024.03;4907640;29;19930;-63
2022/12/21 08:40:25;;;;;;;;;;;;;;;7.32;100.00;101026.19;4895718;29;19926;-67
2022/12/21 08:42:50;;;;;;;;;;;;;;;7.38;100.00;101020.72;4908237;29;19919;-67
2022/12/21 08:45:16;;;;;;;;;;;;;;;7.43;100.00;101020.13;4901005;29;19998;-68
2022/12/21 08:47:41;;;;;;;;;;;;;;;7.50;100.00;101027.28;4910064;29;19919;-63
2022/12/21 08:50:06;;;;;;;;;;;;;;;7.64;100.00;101030.88;4908741;29;20367;-68
2022/12/21 08:52:32;;;;;;;;;;;;;;;7.56;100.00;101019.31;4909314;29;19922;-67
2022/12/21 08:54:57;;;;;;;;;;;;;;;7.56;100.00;101031.09;4912553;29;19922;-68
2022/12/21 08:57:23;;;;;;;;;;;;;;;7.56;100.00;101031.09;4902569;29;19926;-65
2022/12/21 08:59:48;;;;;;;;;;;;;;;7.55;100.00;101026.66;4905900;29;19930;-69
2022/12/21 09:02:14;;;;;;;;;;;;;;;7.53;100.00;101023.28;4909653;29;19974;-66
2022/12/21 09:04:39;;;;;;;;;;;;;;;7.54;100.00;101025.81;4909015;29;19919;-68
2022/12/21 09:07:04;;;;;;;;;;;;;;;7.54;100.00;101046.84;4910250;29;19915;-68
2022/12/21 09:09:29;;;;;;;;;;;;;;;7.56;100.00;101044.75;4909700;29;20374;-68
2022/12/21 09:11:54;;;;;;;;;;;;;;;7.56;100.00;101038.44;4910119;29;19923;-63
2022/12/21 09:14:20;;;;;;;;;;;;;;;7.57;100.00;101040.97;4908532;29;19986;-68
2022/12/21 09:16:45;;;;;;;;;;;;;;;7.56;100.00;101027.53;4903811;29;19929;-63
2022/12/21 09:19:10;;;;;;;;;;;;;;;7.59;100.00;101019.72;4910717;29;19926;-69
2022/12/21 09:21:35;;;;;;;;;;;;;;;7.58;100.00;101019.94;4902093;29;19958;-68
2022/12/21 09:24:01;;;;;;;;;;;;;;;7.69;100.00;101006.50;4905550;29;19926;-68
2022/12/21 09:26:26;;;;;;;;;;;;;;;7.65;100.00;101012.59;4905483;29;19919;-66
2022/12/21 09:28:51;;;;;;;;;;;;;;;7.75;100.00;101010.28;4909273;29;19923;-68
2022/12/21 09:31:18;;;;;;;;;;;;;;;7.89;100.00;101014.72;4912176;29;19950;-66
2022/12/21 09:33:43;;;;;;;;;;;;;;;8.03;100.00;101026.53;4908610;29;19919;-67
2022/12/21 09:36:09;;;;;;;;;;;;;;;8.13;100.00;101026.94;4909658;29;20280;-64
2022/12/21 09:38:34;;;;;;;;;;;;;;;8.14;100.00;101034.09;4908250;29;19919;-68
2022/12/21 09:41:20;;;;;;;;;;;;;;;8.24;100.00;101029.06;4909661;29;19923;-69
2022/12/21 09:43:54;;;;;;;;;;;;;;;8.41;100.00;101031.38;4903938;29;19930;-65
2022/12/21 09:46:19;;;;;;;;;;;;;;;8.46;100.00;101026.09;4903979;29;19983;-68
2022/12/21 09:48:49;;;;;;;;;;;;;;;8.50;100.00;101027.38;4920451;29;20366;-69
2022/12/21 09:51:17;;;;;;;;;;;;;;;8.53;100.00;101029.69;4910292;29;19959;-69
2022/12/21 09:53:55;;;;;;;;;;;;;;;8.57;100.00;101022.75;4924685;29;19929;-68
2022/12/21 09:56:22;;;;;;;;;;;;;;;8.66;100.00;101034.28;4907575;29;19926;-68
2022/12/21 09:58:48;;;;;;;;;;;;;;;8.63;100.00;101038.31;4903472;29;19952;-69
2022/12/21 10:01:42;;;;;;;;;;;;;;;8.68;100.00;101035.78;4913216;29;20392;-67
2022/12/21 10:04:10;;;;;;;;;;;;;;;8.70;100.00;101041.88;4919563;29;19919;-64
2022/12/21 10:06:41;;;;;;;;;;;;;;;8.84;100.00;101039.94;4909515;29;20277;-68
2022/12/21 10:09:06;;;;;;;;;;;;;;;8.91;100.00;101045.41;4912222;29;19974;-67
2022/12/21 10:11:37;;;;;;;;;;;;;;;8.89;100.00;101037.41;4913817;29;19915;-65
2022/12/21 10:14:02;;;;;;;;;;;;;;;8.91;100.00;101029.81;4912552;29;19919;-67
2022/12/21 10:16:49;;;;;;;;;;;;;;;8.89;100.00;101025.63;4913569;29;19919;-69
2022/12/21 10:19:30;;;;;;;;;;;;;;;8.88;100.00;101033.00;4912793;29;19922;-67
2022/12/21 10:21:55;;;;;;;;;;;;;;;8.83;100.00;101039.13;4918729;29;19926;-68
2022/12/21 10:24:42;;;;;;;;;;;;;;;8.75;100.00;101039.34;4918979;29;20283;-68
2022/12/21 10:27:14;;;;;;;;;;;;;;;8.70;100.00;101032.81;4913350;29;20263;-65
2022/12/21 10:29:41;;;;;;;;;;;;;;;8.64;100.00;101037.25;4911896;29;19967;-67
2022/12/21 10:32:11;;;;;;;;;;;;;;;8.60;100.00;101044.19;4913380;29;19919;-66
2022/12/21 10:34:36;;;;;;;;;;;;;;;8.60;100.00;101032.41;4914849;29;19919;-68
2022/12/21 10:37:18;;;;;;;;;;;;;;;8.53;100.00;101027.81;4912433;29;20424;-67
2022/12/21 10:39:44;;;;;;;;;;;;;;;8.56;100.00;101032.00;4914220;29;19923;-68
2022/12/21 10:42:18;;;;;;;;;;;;;;;8.48;100.00;101027.59;4913173;29;20335;-67
2022/12/21 10:44:43;;;;;;;;;;;;;;;8.46;100.00;101024.22;4911952;29;19926;-67
2022/12/21 10:47:22;;;;;;;;;;;;;;;8.58;100.00;101021.69;4912197;29;19922;-68
2022/12/21 10:49:53;;;;;;;;;;;;;;;8.69;100.00;101004.59;4934963;29;20446;-68
2022/12/21 10:52:50;;;;;;;;;;;;;;;8.82;100.00;101003.72;4909887;29;20297;-68
2022/12/21 10:55:18;;;;;;;;;;;;;;;8.93;100.00;101007.69;4901926;29;20346;-67
2022/12/21 10:58:07;;;;;;;;;;;;;;;9.07;100.00;101003.81;4913577;29;20363;-68
2022/12/21 11:00:36;;;;;;;;;;;;;;;9.08;100.00;100997.31;4903903;29;19938;-68
2022/12/21 11:03:02;;;;;;;;;;;;;;;9.03;100.00;100995.22;4908464;29;19919;-68
2022/12/21 11:05:32;;;;;;;;;;;;;;;8.98;100.00;100983.25;4919971;29;19923;-65
2022/12/21 11:08:27;;;;;;;;;;;;;;;9.00;100.00;100994.81;4914154;29;20275;-68
2022/12/21 11:10:56;;;;;;;;;;;;;;;8.98;100.00;100994.19;4906775;29;19922;-68
2022/12/21 11:13:23;;;;;;;;;;;;;;;9.02;100.00;101000.91;4910062;29;20338;-67
2022/12/21 11:16:03;;;;;;;;;;;;;;;9.00;100.00;100990.16;4913567;29;19919;-68
2022/12/21 11:18:36;;;;;;;;;;;;;;;8.83;100.00;101003.50;4911787;29;19960;-67
2022/12/21 11:21:02;;;;;;;;;;;;;;;8.77;100.00;101000.81;4925974;29;20330;-68
2022/12/21 11:23:28;;;;;;;;;;;;;;;8.77;100.00;101003.53;4920903;29;19965;-67
2022/12/21 11:25:54;;;;;;;;;;;;;;;8.74;100.00;101001.22;4913536;29;20348;-68
2022/12/21 11:28:20;;;;;;;;;;;;;;;8.69;100.00;101001.84;4910913;29;19954;-67
2022/12/21 11:30:51;;;;;;;;;;;;;;;8.70;100.00;101009.00;4915091;29;20382;-67
2022/12/21 11:33:17;;;;;;;;;;;;;;;8.62;100.00;101002.91;4912669;29;19919;-68
2022/12/21 11:36:02;;;;;;;;;;;;;;;8.64;100.00;100995.34;4910502;29;19970;-64
2022/12/21 11:38:33;;;;;;;;;;;;;;;8.60;100.00;100999.56;4913261;29;20446;-67
2022/12/21 11:40:58;;;;;;;;;;;;;;;8.60;100.00;101000.41;4913145;29;19915;-68
2022/12/21 11:43:24;;;;;;;;;;;;;;;8.70;100.00;101005.44;4911717;29;19934;-67
2022/12/21 11:45:52;;;;;;;;;;;;;;;8.69;100.00;100990.06;4912931;29;20081;-67
2022/12/21 11:48:27;;;;;;;;;;;;;;;8.58;100.00;100999.78;4913848;29;20278;-67
2022/12/21 11:51:07;;;;;;;;;;;;;;;8.55;100.00;100998.31;4913529;29;19915;-67
2022/12/21 11:53:33;;;;;;;;;;;;;;;8.61;100.00;100991.13;4907125;29;19915;-67
2022/12/21 11:56:04;;;;;;;;;;;;;;;8.59;100.00;100996.00;4911741;29;20374;-67
2022/12/21 11:58:38;;;;;;;;;;;;;;;8.65;100.00;100988.81;4900045;29;20409;-68
2022/12/21 12:01:04;;;;;;;;;;;;;;;8.48;100.00;100985.69;4910174;29;19915;-68
2022/12/21 12:03:36;;;;;;;;;;;;;;;8.57;100.00;100981.69;4917688;29;19997;-62
2022/12/21 12:06:20;;;;;;;;;;;;;;;8.49;100.00;100979.16;4922362;29;19918;-68
2022/12/21 12:08:57;;;;;;;;;;;;;;;8.53;100.00;100964.84;4912192;29;20278;-68
2022/12/21 12:11:22;;;;;;;;;;;;;;;8.60;100.00;100978.50;4919158;29;20266;-68
2022/12/21 12:13:53;;;;;;;;;;;;;;;8.48;100.00;100972.00;4922302;29;19918;-65
2022/12/21 12:16:25;;;;;;;;;;;;;;;8.56;100.00;100960.81;4911804;29;19927;-68
2022/12/21 12:18:59;;;;;;;;;;;;;;;8.48;100.00;100961.06;4913288;29;19923;-68
2022/12/21 12:21:33;;;;;;;;;;;;;;;8.74;100.00;100958.25;4912875;29;19919;-67
2022/12/21 12:24:17;;;;;;;;;;;;;;;8.64;100.00;100957.84;4915915;29;19969;-65
2022/12/21 12:26:48;;;;;;;;;;;;;;;8.62;100.00;100957.25;4899436;29;19941;-68
2022/12/21 12:29:23;;;;;;;;;;;;;;;8.67;100.00;100956.56;4913763;29;19915;-68
2022/12/21 12:31:54;;;;;;;;;;;;;;;8.65;100.00;100953.22;4912528;29;20374;-67
2022/12/21 12:34:32;;;;;;;;;;;;;;;8.72;100.00;100946.69;4914567;29;20323;-66
2022/12/21 12:37:06;;;;;;;;;;;;;;;8.74;100.00;100938.25;4909395;29;19945;-68
2022/12/21 12:39:49;;;;;;;;;;;;;;;8.70;100.00;100943.28;4912989;29;19915;-67
2022/12/21 12:42:17;;;;;;;;;;;;;;;8.81;100.00;100945.34;4910380;29;19946;-66
2022/12/21 12:44:52;;;;;;;;;;;;;;;8.71;100.00;100944.13;4921134;29;19915;-68
2022/12/21 12:47:28;;;;;;;;;;;;;;;8.72;100.00;100941.19;4932002;29;19919;-68